sensor_id;sensor_type;location;lat;lon;timestamp;P1;durP1;ratioP1;P2;durP2;ratioP2
69783;SDS011;57054;51.978;4.498;2023-03-03T00:00:56;6.35;;;4.97;;
69783;SDS011;57054;51.978;4.498;2023-03-03T00:03:22;5.70;;;5.05;;
69783;SDS011;57054;51.978;4.498;2023-03-03T00:05:49;6.63;;;5.32;;
69783;SDS011;57054;51.978;4.498;2023-03-03T00:08:16;5.88;;;5.20;;
69783;SDS011;57054;51.978;4.498;2023-03-03T00:10:42;7.35;;;5.88;;
69783;SDS011;57054;51.978;4.498;2023-03-03T00:13:16;7.95;;;6.25;;
69783;SDS011;57054;51.978;4.498;2023-03-03T00:15:46;8.77;;;6.00;;
69783;SDS011;57054;51.978;4.498;2023-03-03T00:21:00;8.38;;;5.80;;
69783;SDS011;57054;51.978;4.498;2023-03-03T00:23:34;9.32;;;6.63;;
69783;SDS011;57054;51.978;4.498;2023-03-03T00:26:03;7.65;;;5.65;;
69783;SDS011;57054;51.978;4.498;2023-03-03T00:28:44;7.55;;;6.15;;
69783;SDS011;57054;51.978;4.498;2023-03-03T00:31:13;8.20;;;6.22;;
69783;SDS011;57054;51.978;4.498;2023-03-03T00:33:50;7.90;;;5.85;;
69783;SDS011;57054;51.978;4.498;2023-03-03T00:39:30;9.85;;;6.78;;
69783;SDS011;57054;51.978;4.498;2023-03-03T00:42:16;8.98;;;6.47;;
69783;SDS011;57054;51.978;4.498;2023-03-03T00:44:43;9.18;;;7.25;;
69783;SDS011;57054;51.978;4.498;2023-03-03T00:50:20;11.55;;;7.38;;
69783;SDS011;57054;51.978;4.498;2023-03-03T00:53:01;9.23;;;6.72;;
69783;SDS011;57054;51.978;4.498;2023-03-03T00:55:44;9.60;;;6.32;;
69783;SDS011;57054;51.978;4.498;2023-03-03T00:58:11;7.72;;;6.72;;
69783;SDS011;57054;51.978;4.498;2023-03-03T01:00:37;9.40;;;6.80;;
69783;SDS011;57054;51.978;4.498;2023-03-03T01:03:07;8.80;;;6.90;;
69783;SDS011;57054;51.978;4.498;2023-03-03T01:05:36;8.63;;;7.10;;
69783;SDS011;57054;51.978;4.498;2023-03-03T01:08:02;12.32;;;9.15;;
69783;SDS011;57054;51.978;4.498;2023-03-03T01:10:28;11.32;;;7.07;;
69783;SDS011;57054;51.978;4.498;2023-03-03T01:12:56;11.70;;;7.50;;
69783;SDS011;57054;51.978;4.498;2023-03-03T01:15:22;9.77;;;7.45;;
69783;SDS011;57054;51.978;4.498;2023-03-03T01:17:48;12.88;;;8.43;;
69783;SDS011;57054;51.978;4.498;2023-03-03T01:20:14;11.40;;;8.35;;
69783;SDS011;57054;51.978;4.498;2023-03-03T01:22:41;12.25;;;8.10;;
69783;SDS011;57054;51.978;4.498;2023-03-03T01:25:06;13.43;;;7.78;;
69783;SDS011;57054;51.978;4.498;2023-03-03T01:27:33;13.13;;;8.57;;
69783;SDS011;57054;51.978;4.498;2023-03-03T01:29:59;9.65;;;7.40;;
69783;SDS011;57054;51.978;4.498;2023-03-03T01:32:25;11.80;;;7.78;;
69783;SDS011;57054;51.978;4.498;2023-03-03T01:34:51;9.55;;;7.35;;
69783;SDS011;57054;51.978;4.498;2023-03-03T01:37:16;11.18;;;7.75;;
69783;SDS011;57054;51.978;4.498;2023-03-03T01:39:42;10.20;;;7.45;;
69783;SDS011;57054;51.978;4.498;2023-03-03T01:42:11;10.65;;;7.63;;
69783;SDS011;57054;51.978;4.498;2023-03-03T01:44:36;12.68;;;7.13;;
69783;SDS011;57054;51.978;4.498;2023-03-03T01:47:06;11.02;;;7.22;;
69783;SDS011;57054;51.978;4.498;2023-03-03T01:52:28;10.23;;;7.15;;
69783;SDS011;57054;51.978;4.498;2023-03-03T01:55:04;10.02;;;5.82;;
69783;SDS011;57054;51.978;4.498;2023-03-03T01:57:37;9.07;;;6.47;;
69783;SDS011;57054;51.978;4.498;2023-03-03T02:00:06;10.98;;;6.72;;
69783;SDS011;57054;51.978;4.498;2023-03-03T02:02:34;9.32;;;6.25;;
69783;SDS011;57054;51.978;4.498;2023-03-03T02:05:00;7.15;;;5.68;;
69783;SDS011;57054;51.978;4.498;2023-03-03T02:07:25;7.55;;;5.43;;
69783;SDS011;57054;51.978;4.498;2023-03-03T02:12:35;7.43;;;5.05;;
69783;SDS011;57054;51.978;4.498;2023-03-03T02:17:42;7.53;;;5.78;;
69783;SDS011;57054;51.978;4.498;2023-03-03T02:20:13;7.82;;;5.70;;
69783;SDS011;57054;51.978;4.498;2023-03-03T02:22:46;8.13;;;6.07;;
69783;SDS011;57054;51.978;4.498;2023-03-03T02:25:14;5.43;;;4.75;;
69783;SDS011;57054;51.978;4.498;2023-03-03T02:27:51;5.72;;;4.72;;
69783;SDS011;57054;51.978;4.498;2023-03-03T02:30:17;6.72;;;5.00;;
69783;SDS011;57054;51.978;4.498;2023-03-03T02:32:45;8.53;;;5.30;;
69783;SDS011;57054;51.978;4.498;2023-03-03T02:35:27;4.82;;;4.30;;
69783;SDS011;57054;51.978;4.498;2023-03-03T02:38:45;4.47;;;4.07;;
69783;SDS011;57054;51.978;4.498;2023-03-03T02:43:37;4.47;;;3.83;;
69783;SDS011;57054;51.978;4.498;2023-03-03T02:46:10;4.40;;;4.00;;
69783;SDS011;57054;51.978;4.498;2023-03-03T02:48:36;4.82;;;4.38;;
69783;SDS011;57054;51.978;4.498;2023-03-03T02:51:01;6.47;;;4.40;;
69783;SDS011;57054;51.978;4.498;2023-03-03T02:53:27;5.13;;;4.30;;
69783;SDS011;57054;51.978;4.498;2023-03-03T02:55:52;5.63;;;4.65;;
69783;SDS011;57054;51.978;4.498;2023-03-03T02:58:17;6.13;;;4.68;;
69783;SDS011;57054;51.978;4.498;2023-03-03T03:00:43;7.30;;;4.50;;
69783;SDS011;57054;51.978;4.498;2023-03-03T03:03:11;5.65;;;4.60;;
69783;SDS011;57054;51.978;4.498;2023-03-03T03:05:37;4.95;;;4.40;;
69783;SDS011;57054;51.978;4.498;2023-03-03T03:08:02;5.88;;;4.78;;
69783;SDS011;57054;51.978;4.498;2023-03-03T03:10:28;6.80;;;4.70;;
69783;SDS011;57054;51.978;4.498;2023-03-03T03:12:53;6.03;;;4.63;;
69783;SDS011;57054;51.978;4.498;2023-03-03T03:15:18;5.22;;;4.72;;
69783;SDS011;57054;51.978;4.498;2023-03-03T03:17:44;5.93;;;4.30;;
69783;SDS011;57054;51.978;4.498;2023-03-03T03:20:09;5.55;;;4.40;;
69783;SDS011;57054;51.978;4.498;2023-03-03T03:22:35;5.22;;;4.72;;
69783;SDS011;57054;51.978;4.498;2023-03-03T03:25:01;6.38;;;5.03;;
69783;SDS011;57054;51.978;4.498;2023-03-03T03:27:26;7.97;;;5.80;;
69783;SDS011;57054;51.978;4.498;2023-03-03T03:29:52;9.48;;;6.25;;
69783;SDS011;57054;51.978;4.498;2023-03-03T03:32:17;7.90;;;5.65;;
69783;SDS011;57054;51.978;4.498;2023-03-03T03:34:43;9.35;;;6.50;;
69783;SDS011;57054;51.978;4.498;2023-03-03T03:37:08;9.43;;;6.75;;
69783;SDS011;57054;51.978;4.498;2023-03-03T03:39:34;8.23;;;6.10;;
69783;SDS011;57054;51.978;4.498;2023-03-03T03:41:59;13.20;;;7.28;;
69783;SDS011;57054;51.978;4.498;2023-03-03T03:44:25;8.55;;;6.68;;
69783;SDS011;57054;51.978;4.498;2023-03-03T03:46:50;10.15;;;7.10;;
69783;SDS011;57054;51.978;4.498;2023-03-03T03:49:16;12.30;;;8.77;;
69783;SDS011;57054;51.978;4.498;2023-03-03T03:51:41;12.35;;;7.82;;
69783;SDS011;57054;51.978;4.498;2023-03-03T03:54:06;13.15;;;7.30;;
69783;SDS011;57054;51.978;4.498;2023-03-03T03:56:32;10.48;;;6.93;;
69783;SDS011;57054;51.978;4.498;2023-03-03T03:58:59;12.43;;;7.68;;
69783;SDS011;57054;51.978;4.498;2023-03-03T04:01:25;7.68;;;6.43;;
69783;SDS011;57054;51.978;4.498;2023-03-03T04:03:50;10.40;;;7.43;;
69783;SDS011;57054;51.978;4.498;2023-03-03T04:06:16;13.00;;;9.38;;
69783;SDS011;57054;51.978;4.498;2023-03-03T04:08:42;14.13;;;9.13;;
69783;SDS011;57054;51.978;4.498;2023-03-03T04:11:07;14.90;;;9.40;;
69783;SDS011;57054;51.978;4.498;2023-03-03T04:13:33;10.88;;;7.00;;
69783;SDS011;57054;51.978;4.498;2023-03-03T04:15:59;11.32;;;8.23;;
69783;SDS011;57054;51.978;4.498;2023-03-03T04:18:25;12.52;;;8.68;;
69783;SDS011;57054;51.978;4.498;2023-03-03T04:20:51;17.88;;;9.90;;
69783;SDS011;57054;51.978;4.498;2023-03-03T04:23:18;12.38;;;8.45;;
69783;SDS011;57054;51.978;4.498;2023-03-03T04:25:47;13.75;;;7.28;;
69783;SDS011;57054;51.978;4.498;2023-03-03T04:28:13;14.63;;;9.35;;
69783;SDS011;57054;51.978;4.498;2023-03-03T04:30:39;9.30;;;7.50;;
69783;SDS011;57054;51.978;4.498;2023-03-03T04:33:04;9.43;;;7.03;;
69783;SDS011;57054;51.978;4.498;2023-03-03T04:35:30;8.27;;;6.38;;
69783;SDS011;57054;51.978;4.498;2023-03-03T04:37:55;7.40;;;6.07;;
69783;SDS011;57054;51.978;4.498;2023-03-03T04:40:21;9.30;;;7.28;;
69783;SDS011;57054;51.978;4.498;2023-03-03T04:42:47;7.22;;;6.43;;
69783;SDS011;57054;51.978;4.498;2023-03-03T04:45:12;13.95;;;8.00;;
69783;SDS011;57054;51.978;4.498;2023-03-03T04:47:37;9.52;;;7.53;;
69783;SDS011;57054;51.978;4.498;2023-03-03T04:50:03;10.45;;;7.40;;
69783;SDS011;57054;51.978;4.498;2023-03-03T04:52:29;16.75;;;9.32;;
69783;SDS011;57054;51.978;4.498;2023-03-03T04:54:54;10.38;;;7.40;;
69783;SDS011;57054;51.978;4.498;2023-03-03T04:57:20;10.77;;;7.65;;
69783;SDS011;57054;51.978;4.498;2023-03-03T04:59:45;11.27;;;7.63;;
69783;SDS011;57054;51.978;4.498;2023-03-03T05:02:10;9.82;;;7.50;;
69783;SDS011;57054;51.978;4.498;2023-03-03T05:04:37;8.20;;;7.30;;
69783;SDS011;57054;51.978;4.498;2023-03-03T05:07:02;11.45;;;7.03;;
69783;SDS011;57054;51.978;4.498;2023-03-03T05:09:28;11.88;;;7.28;;
69783;SDS011;57054;51.978;4.498;2023-03-03T05:11:53;9.82;;;7.47;;
69783;SDS011;57054;51.978;4.498;2023-03-03T05:14:19;8.07;;;6.85;;
69783;SDS011;57054;51.978;4.498;2023-03-03T05:16:45;8.82;;;7.07;;
69783;SDS011;57054;51.978;4.498;2023-03-03T05:19:10;8.88;;;7.00;;
69783;SDS011;57054;51.978;4.498;2023-03-03T05:21:36;11.43;;;7.70;;
69783;SDS011;57054;51.978;4.498;2023-03-03T05:24:01;11.23;;;7.65;;
69783;SDS011;57054;51.978;4.498;2023-03-03T05:26:26;10.40;;;7.70;;
69783;SDS011;57054;51.978;4.498;2023-03-03T05:28:52;13.77;;;8.77;;
69783;SDS011;57054;51.978;4.498;2023-03-03T05:31:17;12.63;;;7.93;;
69783;SDS011;57054;51.978;4.498;2023-03-03T05:33:43;12.43;;;8.48;;
69783;SDS011;57054;51.978;4.498;2023-03-03T05:36:08;10.07;;;7.28;;
69783;SDS011;57054;51.978;4.498;2023-03-03T05:38:33;8.68;;;6.88;;
69783;SDS011;57054;51.978;4.498;2023-03-03T05:40:59;8.45;;;6.38;;
69783;SDS011;57054;51.978;4.498;2023-03-03T05:43:24;9.18;;;6.65;;
69783;SDS011;57054;51.978;4.498;2023-03-03T05:45:54;8.55;;;6.45;;
69783;SDS011;57054;51.978;4.498;2023-03-03T05:48:20;6.65;;;5.95;;
69783;SDS011;57054;51.978;4.498;2023-03-03T05:50:46;9.57;;;7.05;;
69783;SDS011;57054;51.978;4.498;2023-03-03T05:53:11;9.23;;;6.65;;
69783;SDS011;57054;51.978;4.498;2023-03-03T05:55:36;8.45;;;6.68;;
69783;SDS011;57054;51.978;4.498;2023-03-03T05:58:02;9.10;;;7.18;;
69783;SDS011;57054;51.978;4.498;2023-03-03T06:00:27;13.10;;;7.70;;
69783;SDS011;57054;51.978;4.498;2023-03-03T06:02:53;10.23;;;7.55;;
69783;SDS011;57054;51.978;4.498;2023-03-03T06:05:18;8.90;;;6.85;;
69783;SDS011;57054;51.978;4.498;2023-03-03T06:07:44;12.30;;;7.30;;
69783;SDS011;57054;51.978;4.498;2023-03-03T06:10:09;8.80;;;6.75;;
69783;SDS011;57054;51.978;4.498;2023-03-03T06:12:35;10.63;;;7.05;;
69783;SDS011;57054;51.978;4.498;2023-03-03T06:15:01;11.05;;;7.20;;
69783;SDS011;57054;51.978;4.498;2023-03-03T06:17:27;13.10;;;7.22;;
69783;SDS011;57054;51.978;4.498;2023-03-03T06:19:52;9.23;;;7.22;;
69783;SDS011;57054;51.978;4.498;2023-03-03T06:22:17;9.48;;;6.88;;
69783;SDS011;57054;51.978;4.498;2023-03-03T06:24:43;8.95;;;6.78;;
69783;SDS011;57054;51.978;4.498;2023-03-03T06:27:08;10.40;;;6.65;;
69783;SDS011;57054;51.978;4.498;2023-03-03T06:29:34;10.18;;;7.53;;
69783;SDS011;57054;51.978;4.498;2023-03-03T06:31:59;9.98;;;6.82;;
69783;SDS011;57054;51.978;4.498;2023-03-03T06:34:25;8.18;;;6.55;;
69783;SDS011;57054;51.978;4.498;2023-03-03T06:36:50;7.15;;;6.03;;
69783;SDS011;57054;51.978;4.498;2023-03-03T06:39:16;9.65;;;5.93;;
69783;SDS011;57054;51.978;4.498;2023-03-03T06:41:41;10.30;;;6.50;;
69783;SDS011;57054;51.978;4.498;2023-03-03T06:44:07;6.75;;;5.20;;
69783;SDS011;57054;51.978;4.498;2023-03-03T06:46:32;7.28;;;6.35;;
69783;SDS011;57054;51.978;4.498;2023-03-03T06:48:58;8.75;;;5.93;;
69783;SDS011;57054;51.978;4.498;2023-03-03T06:51:24;7.55;;;6.75;;
69783;SDS011;57054;51.978;4.498;2023-03-03T06:53:54;10.70;;;6.88;;
69783;SDS011;57054;51.978;4.498;2023-03-03T06:56:22;7.55;;;6.63;;
69783;SDS011;57054;51.978;4.498;2023-03-03T06:58:49;10.48;;;7.35;;
69783;SDS011;57054;51.978;4.498;2023-03-03T07:01:20;10.73;;;7.50;;
69783;SDS011;57054;51.978;4.498;2023-03-03T07:03:45;15.02;;;7.15;;
69783;SDS011;57054;51.978;4.498;2023-03-03T07:06:24;7.68;;;6.93;;
69783;SDS011;57054;51.978;4.498;2023-03-03T07:08:52;7.72;;;5.72;;
69783;SDS011;57054;51.978;4.498;2023-03-03T07:11:19;8.45;;;6.07;;
69783;SDS011;57054;51.978;4.498;2023-03-03T07:13:50;5.90;;;5.35;;
69783;SDS011;57054;51.978;4.498;2023-03-03T07:16:17;7.03;;;5.72;;
69783;SDS011;57054;51.978;4.498;2023-03-03T07:21:13;8.63;;;6.90;;
69783;SDS011;57054;51.978;4.498;2023-03-03T07:23:42;6.60;;;5.95;;
69783;SDS011;57054;51.978;4.498;2023-03-03T07:26:13;14.43;;;6.22;;
69783;SDS011;57054;51.978;4.498;2023-03-03T07:28:40;10.23;;;6.30;;
69783;SDS011;57054;51.978;4.498;2023-03-03T07:33:55;7.28;;;5.45;;
69783;SDS011;57054;51.978;4.498;2023-03-03T07:36:26;7.25;;;5.90;;
69783;SDS011;57054;51.978;4.498;2023-03-03T07:38:54;8.15;;;6.75;;
69783;SDS011;57054;51.978;4.498;2023-03-03T07:43:55;6.17;;;4.83;;
69783;SDS011;57054;51.978;4.498;2023-03-03T07:46:47;6.68;;;5.97;;
69783;SDS011;57054;51.978;4.498;2023-03-03T07:49:29;7.00;;;6.00;;
69783;SDS011;57054;51.978;4.498;2023-03-03T07:52:00;7.53;;;6.68;;
69783;SDS011;57054;51.978;4.498;2023-03-03T07:54:28;7.72;;;6.18;;
69783;SDS011;57054;51.978;4.498;2023-03-03T07:56:56;10.30;;;7.22;;
69783;SDS011;57054;51.978;4.498;2023-03-03T07:59:26;10.55;;;7.60;;
69783;SDS011;57054;51.978;4.498;2023-03-03T08:06:56;12.27;;;7.85;;
69783;SDS011;57054;51.978;4.498;2023-03-03T08:14:35;8.32;;;6.65;;
69783;SDS011;57054;51.978;4.498;2023-03-03T08:17:06;9.45;;;6.68;;
69783;SDS011;57054;51.978;4.498;2023-03-03T08:19:45;7.38;;;6.15;;
69783;SDS011;57054;51.978;4.498;2023-03-03T08:22:13;10.63;;;7.15;;
69783;SDS011;57054;51.978;4.498;2023-03-03T08:24:41;8.10;;;6.82;;
69783;SDS011;57054;51.978;4.498;2023-03-03T08:27:07;8.15;;;6.72;;
69783;SDS011;57054;51.978;4.498;2023-03-03T08:29:32;10.32;;;8.10;;
69783;SDS011;57054;51.978;4.498;2023-03-03T08:31:57;8.85;;;7.05;;
69783;SDS011;57054;51.978;4.498;2023-03-03T08:34:23;12.05;;;7.93;;
69783;SDS011;57054;51.978;4.498;2023-03-03T08:36:48;13.15;;;7.63;;
69783;SDS011;57054;51.978;4.498;2023-03-03T08:39:14;12.75;;;7.43;;
69783;SDS011;57054;51.978;4.498;2023-03-03T08:41:39;7.07;;;6.25;;
69783;SDS011;57054;51.978;4.498;2023-03-03T08:44:07;14.75;;;8.15;;
69783;SDS011;57054;51.978;4.498;2023-03-03T08:46:33;8.90;;;7.05;;
69783;SDS011;57054;51.978;4.498;2023-03-03T08:48:58;7.20;;;6.50;;
69783;SDS011;57054;51.978;4.498;2023-03-03T08:51:24;9.30;;;6.80;;
69783;SDS011;57054;51.978;4.498;2023-03-03T08:53:51;6.90;;;6.20;;
69783;SDS011;57054;51.978;4.498;2023-03-03T08:56:16;8.27;;;6.00;;
69783;SDS011;57054;51.978;4.498;2023-03-03T08:58:42;7.20;;;6.47;;
69783;SDS011;57054;51.978;4.498;2023-03-03T09:01:12;11.57;;;7.45;;
69783;SDS011;57054;51.978;4.498;2023-03-03T09:03:38;7.50;;;6.70;;
69783;SDS011;57054;51.978;4.498;2023-03-03T09:06:03;11.52;;;8.23;;
69783;SDS011;57054;51.978;4.498;2023-03-03T09:08:29;13.80;;;8.70;;
69783;SDS011;57054;51.978;4.498;2023-03-03T09:10:54;10.02;;;7.50;;
69783;SDS011;57054;51.978;4.498;2023-03-03T09:13:20;11.13;;;7.25;;
69783;SDS011;57054;51.978;4.498;2023-03-03T09:15:46;13.82;;;9.35;;
69783;SDS011;57054;51.978;4.498;2023-03-03T09:20:42;14.57;;;9.43;;
69783;SDS011;57054;51.978;4.498;2023-03-03T09:23:33;13.77;;;8.83;;
69783;SDS011;57054;51.978;4.498;2023-03-03T09:27:06;16.70;;;9.85;;
69783;SDS011;57054;51.978;4.498;2023-03-03T09:31:48;16.20;;;9.05;;
69783;SDS011;57054;51.978;4.498;2023-03-03T09:34:23;13.50;;;9.00;;
69783;SDS011;57054;51.978;4.498;2023-03-03T09:36:53;12.52;;;8.75;;
69783;SDS011;57054;51.978;4.498;2023-03-03T09:39:25;12.23;;;8.95;;
69783;SDS011;57054;51.978;4.498;2023-03-03T09:41:58;13.73;;;9.05;;
69783;SDS011;57054;51.978;4.498;2023-03-03T09:44:34;14.38;;;9.02;;
69783;SDS011;57054;51.978;4.498;2023-03-03T09:58:26;12.32;;;7.40;;
69783;SDS011;57054;51.978;4.498;2023-03-03T10:07:17;12.82;;;8.23;;
69783;SDS011;57054;51.978;4.498;2023-03-03T10:15:29;11.18;;;6.88;;
69783;SDS011;57054;51.978;4.498;2023-03-03T10:20:43;12.25;;;7.30;;
69783;SDS011;57054;51.978;4.498;2023-03-03T10:26:20;7.97;;;6.28;;
69783;SDS011;57054;51.978;4.498;2023-03-03T10:46:40;10.52;;;6.32;;
69783;SDS011;57054;51.978;4.498;2023-03-03T10:49:18;7.05;;;5.78;;
69783;SDS011;57054;51.978;4.498;2023-03-03T10:51:58;6.72;;;4.90;;
69783;SDS011;57054;51.978;4.498;2023-03-03T11:13:24;4.53;;;3.58;;
69783;SDS011;57054;51.978;4.498;2023-03-03T11:16:21;3.53;;;3.03;;
69783;SDS011;57054;51.978;4.498;2023-03-03T11:24:33;5.22;;;2.78;;
69783;SDS011;57054;51.978;4.498;2023-03-03T11:30:04;3.47;;;2.75;;
69783;SDS011;57054;51.978;4.498;2023-03-03T11:32:44;3.17;;;2.63;;
69783;SDS011;57054;51.978;4.498;2023-03-03T11:35:41;3.03;;;2.42;;
69783;SDS011;57054;51.978;4.498;2023-03-03T11:38:18;5.68;;;2.63;;
69783;SDS011;57054;51.978;4.498;2023-03-03T11:40:50;7.43;;;2.50;;
69783;SDS011;57054;51.978;4.498;2023-03-03T11:43:27;3.53;;;2.38;;
69783;SDS011;57054;51.978;4.498;2023-03-03T11:46:02;2.35;;;2.15;;
69783;SDS011;57054;51.978;4.498;2023-03-03T11:51:19;3.63;;;2.20;;
69783;SDS011;57054;51.978;4.498;2023-03-03T11:53:57;7.28;;;1.85;;
69783;SDS011;57054;51.978;4.498;2023-03-03T11:56:41;2.97;;;1.63;;
69783;SDS011;57054;51.978;4.498;2023-03-03T12:05:03;6.55;;;2.20;;
69783;SDS011;57054;51.978;4.498;2023-03-03T12:07:53;10.70;;;2.47;;
69783;SDS011;57054;51.978;4.498;2023-03-03T12:29:25;4.32;;;2.05;;
69783;SDS011;57054;51.978;4.498;2023-03-03T12:32:06;4.20;;;2.15;;
69783;SDS011;57054;51.978;4.498;2023-03-03T12:37:22;9.02;;;2.15;;
69783;SDS011;57054;51.978;4.498;2023-03-03T12:48:48;1.65;;;1.40;;
69783;SDS011;57054;51.978;4.498;2023-03-03T12:56:52;2.47;;;1.70;;
69783;SDS011;57054;51.978;4.498;2023-03-03T13:02:28;2.90;;;1.10;;
69783;SDS011;57054;51.978;4.498;2023-03-03T13:05:04;1.92;;;1.17;;
69783;SDS011;57054;51.978;4.498;2023-03-03T13:10:41;3.00;;;1.20;;
69783;SDS011;57054;51.978;4.498;2023-03-03T13:21:16;2.45;;;1.90;;
69783;SDS011;57054;51.978;4.498;2023-03-03T13:23:58;5.38;;;2.42;;
69783;SDS011;57054;51.978;4.498;2023-03-03T13:26:44;1.40;;;1.30;;
69783;SDS011;57054;51.978;4.498;2023-03-03T13:31:56;2.63;;;1.52;;
69783;SDS011;57054;51.978;4.498;2023-03-03T13:37:22;3.10;;;1.00;;
69783;SDS011;57054;51.978;4.498;2023-03-03T13:40:25;1.92;;;1.27;;
69783;SDS011;57054;51.978;4.498;2023-03-03T13:43:09;1.20;;;1.10;;
69783;SDS011;57054;51.978;4.498;2023-03-03T13:56:27;3.70;;;1.40;;
69783;SDS011;57054;51.978;4.498;2023-03-03T13:59:14;4.88;;;1.20;;
69783;SDS011;57054;51.978;4.498;2023-03-03T14:02:00;2.85;;;1.27;;
69783;SDS011;57054;51.978;4.498;2023-03-03T14:07:27;2.95;;;1.40;;
69783;SDS011;57054;51.978;4.498;2023-03-03T14:10:08;2.70;;;1.40;;
69783;SDS011;57054;51.978;4.498;2023-03-03T14:12:50;0.98;;;0.90;;
69783;SDS011;57054;51.978;4.498;2023-03-03T14:15:23;4.38;;;2.05;;
69783;SDS011;57054;51.978;4.498;2023-03-03T14:20:18;4.15;;;1.38;;
69783;SDS011;57054;51.978;4.498;2023-03-03T14:25:49;3.55;;;1.58;;
69783;SDS011;57054;51.978;4.498;2023-03-03T14:28:19;2.08;;;1.60;;
69783;SDS011;57054;51.978;4.498;2023-03-03T14:30:47;5.07;;;1.58;;
69783;SDS011;57054;51.978;4.498;2023-03-03T14:35:42;3.83;;;1.60;;
69783;SDS011;57054;51.978;4.498;2023-03-03T14:38:14;5.35;;;1.60;;
69783;SDS011;57054;51.978;4.498;2023-03-03T14:41:19;3.58;;;1.52;;
69783;SDS011;57054;51.978;4.498;2023-03-03T14:46:43;5.75;;;2.00;;
69783;SDS011;57054;51.978;4.498;2023-03-03T14:49:13;7.35;;;1.98;;
69783;SDS011;57054;51.978;4.498;2023-03-03T14:51:50;6.32;;;1.90;;
69783;SDS011;57054;51.978;4.498;2023-03-03T14:54:20;2.13;;;1.90;;
69783;SDS011;57054;51.978;4.498;2023-03-03T14:56:57;7.13;;;1.90;;
69783;SDS011;57054;51.978;4.498;2023-03-03T14:59:31;2.90;;;2.03;;
69783;SDS011;57054;51.978;4.498;2023-03-03T15:01:59;2.58;;;2.03;;
69783;SDS011;57054;51.978;4.498;2023-03-03T15:04:40;12.02;;;2.05;;
69783;SDS011;57054;51.978;4.498;2023-03-03T15:07:40;7.25;;;2.00;;
69783;SDS011;57054;51.978;4.498;2023-03-03T15:10:06;6.32;;;2.22;;
69783;SDS011;57054;51.978;4.498;2023-03-03T15:17:32;6.22;;;1.85;;
69783;SDS011;57054;51.978;4.498;2023-03-03T15:41:42;7.45;;;1.80;;
69783;SDS011;57054;51.978;4.498;2023-03-03T15:44:17;5.38;;;1.73;;
69783;SDS011;57054;51.978;4.498;2023-03-03T15:58:35;2.60;;;2.17;;
69783;SDS011;57054;51.978;4.498;2023-03-03T16:03:18;3.92;;;2.25;;
69783;SDS011;57054;51.978;4.498;2023-03-03T16:05:53;2.70;;;2.50;;
69783;SDS011;57054;51.978;4.498;2023-03-03T16:08:27;2.58;;;2.40;;
69783;SDS011;57054;51.978;4.498;2023-03-03T16:11:07;3.90;;;3.53;;
69783;SDS011;57054;51.978;4.498;2023-03-03T16:16:27;4.60;;;3.60;;
69783;SDS011;57054;51.978;4.498;2023-03-03T16:19:19;8.10;;;2.67;;
69783;SDS011;57054;51.978;4.498;2023-03-03T16:21:51;7.18;;;2.63;;
69783;SDS011;57054;51.978;4.498;2023-03-03T16:25:25;4.05;;;2.38;;
69783;SDS011;57054;51.978;4.498;2023-03-03T16:27:51;5.00;;;2.58;;
69783;SDS011;57054;51.978;4.498;2023-03-03T16:30:24;3.67;;;2.55;;
69783;SDS011;57054;51.978;4.498;2023-03-03T16:36:05;4.93;;;2.10;;
69783;SDS011;57054;51.978;4.498;2023-03-03T16:41:20;3.20;;;1.40;;
69783;SDS011;57054;51.978;4.498;2023-03-03T16:44:01;3.40;;;1.80;;
69783;SDS011;57054;51.978;4.498;2023-03-03T16:46:48;2.75;;;1.40;;
69783;SDS011;57054;51.978;4.498;2023-03-03T16:49:29;2.25;;;1.30;;
69783;SDS011;57054;51.978;4.498;2023-03-03T16:54:55;4.50;;;1.38;;
69783;SDS011;57054;51.978;4.498;2023-03-03T16:57:32;2.70;;;1.52;;
69783;SDS011;57054;51.978;4.498;2023-03-03T17:08:22;4.03;;;1.40;;
69783;SDS011;57054;51.978;4.498;2023-03-03T17:14:15;5.43;;;1.20;;
69783;SDS011;57054;51.978;4.498;2023-03-03T17:19:38;2.92;;;0.90;;
69783;SDS011;57054;51.978;4.498;2023-03-03T17:22:13;2.00;;;1.00;;
69783;SDS011;57054;51.978;4.498;2023-03-03T17:24:53;4.07;;;0.95;;
69783;SDS011;57054;51.978;4.498;2023-03-03T17:27:55;8.45;;;1.52;;
69783;SDS011;57054;51.978;4.498;2023-03-03T17:35:56;7.30;;;1.42;;
69783;SDS011;57054;51.978;4.498;2023-03-03T17:44:57;9.35;;;1.67;;
69783;SDS011;57054;51.978;4.498;2023-03-03T17:47:46;9.45;;;1.10;;
69783;SDS011;57054;51.978;4.498;2023-03-03T17:56:27;5.10;;;1.40;;
69783;SDS011;57054;51.978;4.498;2023-03-03T17:59:06;2.35;;;0.95;;
69783;SDS011;57054;51.978;4.498;2023-03-03T18:06:47;9.70;;;1.63;;
69783;SDS011;57054;51.978;4.498;2023-03-03T18:15:41;10.20;;;1.87;;
69783;SDS011;57054;51.978;4.498;2023-03-03T18:21:21;8.35;;;2.05;;
69783;SDS011;57054;51.978;4.498;2023-03-03T18:23:51;8.75;;;1.70;;
69783;SDS011;57054;51.978;4.498;2023-03-03T18:26:48;11.25;;;1.95;;
69783;SDS011;57054;51.978;4.498;2023-03-03T18:29:24;7.57;;;1.70;;
69783;SDS011;57054;51.978;4.498;2023-03-03T18:39:36;7.40;;;1.60;;
69783;SDS011;57054;51.978;4.498;2023-03-03T18:44:47;6.47;;;2.30;;
69783;SDS011;57054;51.978;4.498;2023-03-03T18:47:13;10.38;;;1.75;;
69783;SDS011;57054;51.978;4.498;2023-03-03T18:49:52;10.77;;;2.38;;
69783;SDS011;57054;51.978;4.498;2023-03-03T18:52:22;8.25;;;1.95;;
69783;SDS011;57054;51.978;4.498;2023-03-03T18:57:34;11.85;;;1.92;;
69783;SDS011;57054;51.978;4.498;2023-03-03T19:02:38;13.48;;;2.13;;
69783;SDS011;57054;51.978;4.498;2023-03-03T19:07:45;9.05;;;2.38;;
69783;SDS011;57054;51.978;4.498;2023-03-03T19:14:10;9.10;;;1.92;;
69783;SDS011;57054;51.978;4.498;2023-03-03T19:16:42;15.82;;;2.40;;
69783;SDS011;57054;51.978;4.498;2023-03-03T19:19:10;12.20;;;2.10;;
69783;SDS011;57054;51.978;4.498;2023-03-03T19:21:40;16.70;;;2.58;;
69783;SDS011;57054;51.978;4.498;2023-03-03T19:30:24;5.90;;;1.98;;
69783;SDS011;57054;51.978;4.498;2023-03-03T19:35:27;6.75;;;1.88;;
69783;SDS011;57054;51.978;4.498;2023-03-03T19:40:49;14.75;;;2.42;;
69783;SDS011;57054;51.978;4.498;2023-03-03T19:43:42;5.65;;;1.70;;
69783;SDS011;57054;51.978;4.498;2023-03-03T19:46:26;10.00;;;1.70;;
69783;SDS011;57054;51.978;4.498;2023-03-03T19:49:04;9.23;;;2.00;;
69783;SDS011;57054;51.978;4.498;2023-03-03T19:57:04;17.77;;;2.92;;
69783;SDS011;57054;51.978;4.498;2023-03-03T20:00:17;12.25;;;2.55;;
69783;SDS011;57054;51.978;4.498;2023-03-03T20:05:18;9.40;;;1.98;;
69783;SDS011;57054;51.978;4.498;2023-03-03T20:07:50;10.73;;;1.88;;
69783;SDS011;57054;51.978;4.498;2023-03-03T20:32:52;10.65;;;2.45;;
69783;SDS011;57054;51.978;4.498;2023-03-03T20:35:29;13.80;;;2.30;;
69783;SDS011;57054;51.978;4.498;2023-03-03T20:38:21;22.63;;;2.42;;
69783;SDS011;57054;51.978;4.498;2023-03-03T20:49:51;6.93;;;1.73;;
69783;SDS011;57054;51.978;4.498;2023-03-03T21:03:14;8.18;;;2.65;;
69783;SDS011;57054;51.978;4.498;2023-03-03T21:06:01;12.77;;;3.05;;
69783;SDS011;57054;51.978;4.498;2023-03-03T21:08:51;12.57;;;2.40;;
69783;SDS011;57054;51.978;4.498;2023-03-03T21:13:55;12.13;;;2.03;;
69783;SDS011;57054;51.978;4.498;2023-03-03T21:21:38;9.98;;;2.22;;
69783;SDS011;57054;51.978;4.498;2023-03-03T21:24:06;14.18;;;2.35;;
69783;SDS011;57054;51.978;4.498;2023-03-03T21:26:56;10.38;;;1.83;;
69783;SDS011;57054;51.978;4.498;2023-03-03T21:31:52;13.77;;;2.33;;
69783;SDS011;57054;51.978;4.498;2023-03-03T21:36:46;11.85;;;2.45;;
69783;SDS011;57054;51.978;4.498;2023-03-03T21:39:19;10.02;;;2.03;;
69783;SDS011;57054;51.978;4.498;2023-03-03T21:44:28;17.25;;;2.67;;
69783;SDS011;57054;51.978;4.498;2023-03-03T21:46:59;8.02;;;2.45;;
69783;SDS011;57054;51.978;4.498;2023-03-03T21:49:24;14.45;;;2.60;;
69783;SDS011;57054;51.978;4.498;2023-03-03T21:51:50;10.60;;;2.20;;